Time;durP1;ratioP1;P1;durP2;ratioP2;P2;SDS_P1;SDS_P2;PMS_P1;PMS_P2;Temp;Humidity;BMP_temperature;BMP_pressure;BME280_temperature;BME280_humidity;BME280_pressure;Samples;Min_cycle;Max_cycle;Signal;HPM_P1;HPM_P2
2022/11/30 00:00:55;;;;;;;51.77;41.63;;;6.30;99.90;;;;;;5077505;28;20939;-80
2022/11/30 00:03:24;;;;;;;46.50;39.57;;;6.30;99.90;;;;;;5075924;28;20480;-80
2022/11/30 00:05:52;;;;;;;47.97;39.80;;;6.30;99.90;;;;;;5077260;28;20435;-81
2022/11/30 00:08:21;;;;;;;44.57;39.60;;;6.30;99.90;;;;;;5076995;28;20448;-80
2022/11/30 00:10:49;;;;;;;48.30;39.40;;;6.30;99.90;;;;;;5076911;28;20441;-80
2022/11/30 00:13:17;;;;;;;48.03;40.50;;;6.20;99.90;;;;;;5075284;28;20480;-80
2022/11/30 00:15:46;;;;;;;48.40;39.63;;;6.20;99.90;;;;;;5075227;28;20433;-80
2022/11/30 00:18:16;;;;;;;51.53;41.67;;;6.20;99.90;;;;;;5074242;28;20487;-80
2022/11/30 00:20:44;;;;;;;50.07;41.50;;;6.30;99.90;;;;;;5074430;28;20460;-80
2022/11/30 00:23:12;;;;;;;52.53;43.70;;;6.20;99.90;;;;;;5075928;28;20465;-80
2022/11/30 00:25:41;;;;;;;50.73;42.53;;;6.20;99.90;;;;;;5073774;28;20451;-80
2022/11/30 00:28:09;;;;;;;51.73;42.43;;;6.20;99.90;;;;;;5074329;28;20454;-80
2022/11/30 00:30:37;;;;;;;56.10;42.63;;;6.20;99.90;;;;;;5075763;28;20575;-80
2022/11/30 00:33:07;;;;;;;51.80;41.70;;;6.20;99.90;;;;;;5076471;28;20469;-80
2022/11/30 00:35:35;;;;;;;53.73;43.07;;;6.20;99.90;;;;;;5074370;28;20445;-80
2022/11/30 00:38:03;;;;;;;51.83;42.20;;;6.20;99.90;;;;;;5074048;28;20453;-80
2022/11/30 00:40:31;;;;;;;53.60;44.17;;;6.20;99.90;;;;;;5074170;28;20518;-80
2022/11/30 00:42:59;;;;;;;47.80;40.07;;;6.20;99.90;;;;;;5079084;28;20438;-80
2022/11/30 00:45:27;;;;;;;51.97;42.83;;;6.20;99.90;;;;;;5076567;28;20442;-80
2022/11/30 00:47:55;;;;;;;53.17;43.40;;;6.20;99.90;;;;;;5076733;28;20434;-80
2022/11/30 00:50:25;;;;;;;59.73;44.00;;;6.20;99.90;;;;;;5074508;28;20444;-81
2022/11/30 00:52:53;;;;;;;54.10;41.13;;;6.20;99.90;;;;;;5074364;28;20503;-81
2022/11/30 00:55:21;;;;;;;57.50;43.37;;;6.20;99.90;;;;;;5073760;28;20499;-81
2022/11/30 00:57:50;;;;;;;56.50;42.43;;;6.20;99.90;;;;;;5075383;28;20456;-80
2022/11/30 01:00:18;;;;;;;54.87;42.47;;;6.20;99.90;;;;;;5073886;28;20492;-80
2022/11/30 01:02:46;;;;;;;54.77;41.77;;;6.20;99.90;;;;;;5075049;28;20566;-81
2022/11/30 01:05:15;;;;;;;52.00;40.73;;;6.10;99.90;;;;;;5074717;28;20526;-81
2022/11/30 01:07:44;;;;;;;62.53;43.53;;;6.20;99.90;;;;;;5073322;28;20452;-81
2022/11/30 01:10:12;;;;;;;56.73;41.70;;;6.10;99.90;;;;;;5075275;28;20441;-80
2022/11/30 01:12:41;;;;;;;53.67;40.03;;;6.20;99.90;;;;;;5075241;28;20453;-80
2022/11/30 01:15:10;;;;;;;52.03;41.00;;;6.20;99.90;;;;;;5070392;28;20831;-80
2022/11/30 01:17:38;;;;;;;57.63;40.97;;;6.10;99.90;;;;;;5073353;28;20446;-81
2022/11/30 01:20:07;;;;;;;54.93;41.97;;;6.10;99.90;;;;;;5073392;28;20465;-80
2022/11/30 01:22:36;;;;;;;53.30;43.00;;;6.10;99.90;;;;;;5075031;28;20433;-80
2022/11/30 01:25:06;;;;;;;59.10;42.50;;;6.10;99.90;;;;;;5074656;28;20527;-81
2022/11/30 01:27:34;;;;;;;54.93;41.27;;;6.10;99.90;;;;;;5073346;28;20452;-80
2022/11/30 01:30:04;;;;;;;61.20;43.07;;;6.10;99.90;;;;;;5073247;28;20468;-80
2022/11/30 01:32:32;;;;;;;55.47;41.37;;;6.10;99.90;;;;;;5074735;28;20781;-80
2022/11/30 01:35:00;;;;;;;55.27;41.63;;;6.00;99.90;;;;;;5072518;28;20476;-80
2022/11/30 01:37:29;;;;;;;57.00;40.77;;;6.00;99.90;;;;;;5073354;28;20472;-80
2022/11/30 01:39:57;;;;;;;54.03;41.47;;;6.00;99.90;;;;;;5074644;28;21115;-81
2022/11/30 01:42:27;;;;;;;58.80;41.40;;;6.00;99.90;;;;;;5073562;28;20452;-80
2022/11/30 01:44:56;;;;;;;56.53;40.50;;;6.00;99.90;;;;;;5076048;28;20493;-80
2022/11/30 01:47:28;;;;;;;56.30;41.30;;;6.00;99.90;;;;;;5078111;28;20440;-80
2022/11/30 01:50:03;;;;;;;59.60;41.67;;;6.00;99.90;;;;;;5076757;28;20428;-81
2022/11/30 01:52:34;;;;;;;53.97;41.97;;;6.00;99.90;;;;;;5076293;28;20429;-81
2022/11/30 01:55:10;;;;;;;54.70;41.50;;;5.90;99.90;;;;;;5074386;28;20813;-81
2022/11/30 01:57:44;;;;;;;61.60;43.03;;;6.00;99.90;;;;;;5076294;28;20417;-81
2022/11/30 02:00:15;;;;;;;56.20;40.97;;;6.00;99.90;;;;;;5074339;28;20458;-81
2022/11/30 02:02:52;;;;;;;62.10;40.47;;;6.00;99.90;;;;;;5074091;28;20829;-81
2022/11/30 02:05:21;;;;;;;63.97;42.60;;;6.00;99.90;;;;;;5071017;28;21017;-81
2022/11/30 02:07:49;;;;;;;49.33;34.03;;;5.90;99.90;;;;;;5073702;28;20442;-81
2022/11/30 02:10:21;;;;;;;52.03;40.10;;;5.90;99.90;;;;;;5075295;28;20984;-81
2022/11/30 02:13:19;;;;;;;70.93;44.07;;;5.90;99.90;;;;;;5075305;28;20438;-81
2022/11/30 02:15:56;;;;;;;60.13;43.27;;;5.90;99.90;;;;;;5060879;28;20449;-81
2022/11/30 02:18:32;;;;;;;65.07;44.17;;;5.90;99.90;;;;;;5073607;28;20483;-81
2022/11/30 02:21:08;;;;;;;67.60;45.80;;;5.90;99.90;;;;;;5075022;28;20903;-81
2022/11/30 02:24:09;;;;;;;77.50;46.70;;;5.90;99.90;;;;;;5075165;28;20477;-81
2022/11/30 02:26:54;;;;;;;73.27;45.77;;;5.90;99.90;;;;;;5073425;28;20432;-80
2022/11/30 02:29:28;;;;;;;76.57;46.60;;;5.80;99.90;;;;;;5073237;28;20484;-80
2022/11/30 02:32:04;;;;;;;72.03;45.83;;;5.80;99.90;;;;;;5074384;28;20452;-81
2022/11/30 02:34:34;;;;;;;78.40;46.90;;;5.90;99.90;;;;;;5074294;28;20975;-81
2022/11/30 02:37:03;;;;;;;77.53;47.83;;;5.90;99.90;;;;;;5074358;28;20441;-81
2022/11/30 02:39:31;;;;;;;72.07;46.70;;;5.90;99.90;;;;;;5073029;28;20441;-81
2022/11/30 02:42:02;;;;;;;77.23;48.47;;;5.90;99.90;;;;;;5074494;28;20475;-81
2022/11/30 02:44:32;;;;;;;84.93;48.80;;;5.80;99.90;;;;;;5076000;28;20518;-81
2022/11/30 02:47:11;;;;;;;70.10;46.23;;;5.80;99.90;;;;;;5077953;28;20441;-81
2022/11/30 02:49:48;;;;;;;74.47;46.53;;;5.80;99.90;;;;;;5078765;28;20491;-81
2022/11/30 02:52:19;;;;;;;79.47;46.90;;;5.80;99.90;;;;;;5078398;28;21004;-81
2022/11/30 02:54:48;;;;;;;73.80;48.20;;;5.80;99.90;;;;;;5077313;28;20473;-81
2022/11/30 02:57:16;;;;;;;79.90;48.07;;;5.80;99.90;;;;;;5080224;28;20452;-81
2022/11/30 02:59:48;;;;;;;77.63;48.03;;;5.80;99.90;;;;;;5079394;28;20445;-81
2022/11/30 03:02:16;;;;;;;86.17;50.53;;;5.80;99.90;;;;;;5079939;28;20441;-81
2022/11/30 03:04:44;;;;;;;80.83;49.20;;;5.80;99.90;;;;;;5077848;28;20465;-81
2022/11/30 03:07:13;;;;;;;76.23;47.40;;;5.80;99.90;;;;;;5077639;28;20958;-81
2022/11/30 03:09:41;;;;;;;79.53;48.33;;;5.80;99.90;;;;;;5077903;28;20445;-81
2022/11/30 03:12:09;;;;;;;73.70;46.00;;;5.80;99.90;;;;;;5079257;28;20512;-81
2022/11/30 03:14:37;;;;;;;70.60;45.00;;;5.80;99.90;;;;;;5077503;28;20465;-81
2022/11/30 03:17:07;;;;;;;77.57;47.53;;;5.80;99.90;;;;;;5077918;28;20457;-81
2022/11/30 03:19:35;;;;;;;76.67;48.63;;;5.80;99.90;;;;;;5077619;28;20449;-81
2022/11/30 03:22:03;;;;;;;71.73;47.43;;;5.80;99.90;;;;;;5077265;28;20469;-81
2022/11/30 03:24:31;;;;;;;81.77;47.40;;;5.80;99.90;;;;;;5077160;28;20465;-81
2022/11/30 03:27:00;;;;;;;72.80;46.20;;;5.80;99.90;;;;;;5078511;28;20441;-81
2022/11/30 03:29:28;;;;;;;78.70;47.33;;;5.80;99.90;;;;;;5077723;28;20454;-81
2022/11/30 03:31:56;;;;;;;76.63;49.30;;;5.80;99.90;;;;;;5076831;28;20449;-81
2022/11/30 03:34:26;;;;;;;76.73;46.03;;;5.70;99.90;;;;;;5076955;28;20473;-81
2022/11/30 03:36:55;;;;;;;74.40;47.73;;;5.80;99.90;;;;;;5076752;28;20453;-81
2022/11/30 03:39:23;;;;;;;76.93;45.63;;;5.80;99.90;;;;;;5076500;28;20457;-80
2022/11/30 03:41:51;;;;;;;78.87;48.30;;;5.80;99.90;;;;;;5077870;28;20472;-80
2022/11/30 03:44:19;;;;;;;63.40;44.53;;;5.70;99.90;;;;;;5075596;28;20503;-80
2022/11/30 03:46:47;;;;;;;80.67;48.00;;;5.70;99.90;;;;;;5065001;28;20449;-81
2022/11/30 03:49:16;;;;;;;79.17;46.73;;;5.70;99.90;;;;;;5076135;28;20469;-80
2022/11/30 03:51:45;;;;;;;77.67;46.97;;;5.70;99.90;;;;;;5076059;28;20457;-81
2022/11/30 03:54:13;;;;;;;72.83;46.20;;;5.70;99.90;;;;;;5076023;28;20547;-81
2022/11/30 03:56:41;;;;;;;80.40;46.63;;;5.70;99.90;;;;;;5075969;28;20449;-81
2022/11/30 03:59:09;;;;;;;74.00;46.30;;;5.70;99.90;;;;;;5075941;28;20443;-81
2022/11/30 04:01:39;;;;;;;80.53;45.33;;;5.70;99.90;;;;;;5076820;28;20460;-81
2022/11/30 04:04:09;;;;;;;77.90;45.93;;;5.70;99.90;;;;;;5076427;28;21023;-80
2022/11/30 04:06:37;;;;;;;80.83;45.03;;;5.70;99.90;;;;;;5075300;28;20449;-80
2022/11/30 04:09:06;;;;;;;80.97;48.80;;;5.70;99.90;;;;;;5075236;28;20445;-80
2022/11/30 04:11:35;;;;;;;81.47;45.57;;;5.70;99.90;;;;;;5075292;28;20451;-80
2022/11/30 04:14:04;;;;;;;72.20;45.67;;;5.70;99.90;;;;;;5074924;28;20543;-80
2022/11/30 04:16:32;;;;;;;86.77;48.57;;;5.70;99.90;;;;;;5075053;28;20458;-80
2022/11/30 04:19:01;;;;;;;82.47;46.73;;;5.70;99.90;;;;;;5076408;28;20470;-80
2022/11/30 04:21:29;;;;;;;85.33;48.67;;;5.70;99.90;;;;;;5076183;28;20465;-80
2022/11/30 04:23:57;;;;;;;82.07;49.03;;;5.70;99.90;;;;;;5074937;28;20476;-80
2022/11/30 04:26:26;;;;;;;85.27;49.33;;;5.80;99.90;;;;;;5074762;28;20456;-80
2022/11/30 04:28:54;;;;;;;91.87;51.00;;;5.70;99.90;;;;;;5076415;28;20456;-80
2022/11/30 04:31:22;;;;;;;74.80;45.80;;;5.70;99.90;;;;;;5088915;28;20453;-80
2022/11/30 04:33:53;;;;;;;80.77;48.27;;;5.70;99.90;;;;;;5091929;28;20473;-80
2022/11/30 04:36:21;;;;;;;79.10;48.07;;;5.70;99.90;;;;;;5091993;28;20457;-80
2022/11/30 04:38:49;;;;;;;89.17;48.30;;;5.70;99.90;;;;;;5086126;28;20445;-81
2022/11/30 04:41:17;;;;;;;76.97;49.50;;;5.80;99.90;;;;;;5085245;28;20465;-80
2022/11/30 04:43:47;;;;;;;92.20;53.23;;;5.70;99.90;;;;;;5084085;28;20458;-81
2022/11/30 04:46:15;;;;;;;90.40;53.60;;;5.70;99.90;;;;;;5082605;28;20453;-81
2022/11/30 04:48:43;;;;;;;85.33;54.30;;;5.70;99.90;;;;;;5083276;28;20449;-81
2022/11/30 04:51:13;;;;;;;91.87;50.90;;;5.80;99.90;;;;;;5077559;28;20462;-80
2022/11/30 04:53:42;;;;;;;90.37;50.83;;;5.80;99.90;;;;;;5077183;28;20492;-81
2022/11/30 04:56:11;;;;;;;84.47;49.90;;;5.70;99.90;;;;;;5075524;28;20444;-81
2022/11/30 04:58:39;;;;;;;81.70;49.60;;;5.80;99.90;;;;;;5075610;28;20445;-81
2022/11/30 05:01:09;;;;;;;97.30;51.30;;;5.70;99.90;;;;;;5074972;28;20511;-81
2022/11/30 05:03:37;;;;;;;94.03;54.00;;;5.80;99.90;;;;;;5074910;28;20491;-81
2022/11/30 05:06:06;;;;;;;101.80;54.13;;;5.80;99.90;;;;;;5075079;28;20456;-81
2022/11/30 05:08:34;;;;;;;86.70;49.30;;;5.70;99.90;;;;;;5075704;28;20448;-81
2022/11/30 05:11:02;;;;;;;88.70;49.13;;;5.70;99.90;;;;;;5075462;28;20453;-81
2022/11/30 05:13:30;;;;;;;93.93;52.60;;;5.80;99.90;;;;;;5076166;28;20465;-81
2022/11/30 05:15:58;;;;;;;85.07;53.53;;;5.80;99.90;;;;;;5076519;28;20506;-81
2022/11/30 05:18:30;;;;;;;87.63;52.00;;;5.70;99.90;;;;;;5075218;28;20495;-80
2022/11/30 05:20:58;;;;;;;93.43;53.67;;;5.80;99.90;;;;;;5074639;28;20803;-81
2022/11/30 05:23:26;;;;;;;93.43;53.23;;;5.70;99.90;;;;;;5076063;28;20453;-81
2022/11/30 05:25:54;;;;;;;93.77;52.73;;;5.70;99.90;;;;;;5073937;28;20532;-81
2022/11/30 05:28:22;;;;;;;98.20;53.07;;;5.80;99.90;;;;;;5074299;28;20441;-81
2022/11/30 05:30:51;;;;;;;92.93;51.97;;;5.70;99.90;;;;;;5074497;28;20464;-81
2022/11/30 05:33:19;;;;;;;93.67;53.33;;;5.70;99.90;;;;;;5076554;28;20510;-81
2022/11/30 05:35:48;;;;;;;108.77;56.43;;;5.80;99.90;;;;;;5074692;28;20464;-81
2022/11/30 05:38:17;;;;;;;94.47;54.40;;;5.80;99.90;;;;;;5074909;28;20449;-81
2022/11/30 05:40:46;;;;;;;95.40;54.20;;;5.70;99.90;;;;;;5075432;28;20813;-81
2022/11/30 05:43:14;;;;;;;99.10;54.77;;;5.70;99.90;;;;;;5074050;28;20476;-81
2022/11/30 05:45:42;;;;;;;96.77;55.80;;;5.70;99.90;;;;;;5074427;28;20445;-81
2022/11/30 05:48:10;;;;;;;99.97;56.10;;;5.70;99.90;;;;;;5073907;28;20441;-81
2022/11/30 05:50:39;;;;;;;98.77;56.40;;;5.70;99.90;;;;;;5074035;28;20831;-81
2022/11/30 05:53:08;;;;;;;109.67;58.13;;;5.70;99.90;;;;;;5073909;28;20455;-80
2022/11/30 05:55:36;;;;;;;109.00;57.17;;;5.70;99.90;;;;;;5075108;28;20491;-80
2022/11/30 05:58:05;;;;;;;91.43;52.80;;;5.70;99.90;;;;;;5073821;28;20445;-80
2022/11/30 06:00:33;;;;;;;104.87;55.90;;;5.70;99.90;;;;;;5073394;28;20452;-80
2022/11/30 06:03:02;;;;;;;88.70;54.77;;;5.70;99.90;;;;;;5075306;28;20560;-80
2022/11/30 06:05:34;;;;;;;91.50;55.40;;;5.70;99.90;;;;;;5074132;28;20441;-80
2022/11/30 06:08:02;;;;;;;89.43;54.90;;;5.70;99.90;;;;;;5075322;28;20486;-80
2022/11/30 06:10:32;;;;;;;97.17;55.80;;;5.70;99.90;;;;;;5073815;28;20452;-80
2022/11/30 06:13:06;;;;;;;95.53;55.23;;;5.70;99.90;;;;;;5073463;28;20543;-80
2022/11/30 06:15:36;;;;;;;80.70;51.43;;;5.70;99.90;;;;;;5072457;28;20840;-80
2022/11/30 06:18:05;;;;;;;94.23;53.03;;;5.70;99.90;;;;;;5073260;28;20507;-80
2022/11/30 06:20:33;;;;;;;85.30;54.10;;;5.70;99.90;;;;;;5075922;28;20448;-80
2022/11/30 06:23:01;;;;;;;90.87;54.80;;;5.70;99.90;;;;;;5077013;28;20509;-80
2022/11/30 06:25:30;;;;;;;83.73;50.43;;;5.70;99.90;;;;;;5078623;28;20438;-80
2022/11/30 06:27:59;;;;;;;85.23;53.20;;;5.60;99.90;;;;;;5077677;28;20445;-80
2022/11/30 06:30:27;;;;;;;90.90;54.07;;;5.60;99.90;;;;;;5077134;28;20464;-80
2022/11/30 06:32:56;;;;;;;91.50;56.00;;;5.60;99.90;;;;;;5076809;28;20486;-80
2022/11/30 06:35:24;;;;;;;95.60;57.23;;;5.60;99.90;;;;;;5077821;28;20523;-80
2022/11/30 06:37:53;;;;;;;87.40;51.13;;;5.60;99.90;;;;;;5078352;28;20508;-80
2022/11/30 06:40:21;;;;;;;88.80;52.80;;;5.60;99.90;;;;;;5076672;28;20437;-80
2022/11/30 06:42:50;;;;;;;84.73;53.53;;;5.60;99.90;;;;;;5077058;28;20496;-80
2022/11/30 06:45:19;;;;;;;79.60;51.57;;;5.60;99.90;;;;;;5080843;28;20804;-79
2022/11/30 06:47:47;;;;;;;81.07;53.10;;;5.60;99.90;;;;;;5083271;28;20437;-80
2022/11/30 06:50:16;;;;;;;79.50;50.30;;;5.60;99.90;;;;;;5082688;28;20441;-81
2022/11/30 06:52:44;;;;;;;90.83;52.60;;;5.60;99.90;;;;;;5080943;28;20434;-80
2022/11/30 06:55:12;;;;;;;90.53;51.07;;;5.60;99.90;;;;;;5080488;28;20465;-80
2022/11/30 06:57:40;;;;;;;85.17;51.33;;;5.60;99.90;;;;;;5081119;28;20449;-81
2022/11/30 07:00:11;;;;;;;85.17;50.40;;;5.60;99.90;;;;;;5080855;28;20445;-81
2022/11/30 07:02:40;;;;;;;79.37;49.80;;;5.60;99.90;;;;;;5078958;28;20481;-80
2022/11/30 07:05:09;;;;;;;83.87;50.43;;;5.60;99.90;;;;;;5078777;28;20477;-80
2022/11/30 07:07:37;;;;;;;77.93;49.40;;;5.60;99.90;;;;;;5080304;28;20452;-81
2022/11/30 07:10:07;;;;;;;71.40;44.63;;;5.60;99.90;;;;;;5079727;28;20534;-81
2022/11/30 07:12:35;;;;;;;75.13;47.43;;;5.60;99.90;;;;;;5078499;28;20459;-81
2022/11/30 07:15:04;;;;;;;77.93;46.60;;;5.60;99.90;;;;;;5077886;28;20489;-81
2022/11/30 07:17:32;;;;;;;65.37;45.83;;;5.60;99.90;;;;;;5077905;28;20946;-81
2022/11/30 07:20:02;;;;;;;71.60;47.00;;;5.60;99.90;;;;;;5077658;28;20861;-81
2022/11/30 07:22:30;;;;;;;73.27;43.60;;;5.60;99.90;;;;;;5077687;28;21057;-81
2022/11/30 07:27:43;;;;;;;69.73;44.33;;;5.60;99.90;;;;;;5077190;28;20863;-81
2022/11/30 07:30:12;;;;;;;63.23;41.70;;;5.60;99.90;;;;;;5078722;28;21377;-81
2022/11/30 07:32:41;;;;;;;71.53;43.10;;;5.60;99.90;;;;;;5075988;28;20487;-81
2022/11/30 07:35:10;;;;;;;65.40;44.20;;;5.60;99.90;;;;;;5077513;28;20522;-81
2022/11/30 07:37:38;;;;;;;70.23;42.20;;;5.60;99.90;;;;;;5077015;28;20880;-81
2022/11/30 07:40:08;;;;;;;74.87;43.50;;;5.60;99.90;;;;;;5078392;28;20433;-81
2022/11/30 07:42:36;;;;;;;71.20;43.07;;;5.60;99.90;;;;;;5076282;28;20563;-81
2022/11/30 07:45:05;;;;;;;64.40;41.73;;;5.60;99.90;;;;;;5076028;28;20476;-81
2022/11/30 07:47:33;;;;;;;68.43;43.13;;;5.60;99.90;;;;;;5077792;28;20926;-81
2022/11/30 07:50:01;;;;;;;67.50;41.80;;;5.60;99.90;;;;;;5076149;28;20860;-81
2022/11/30 07:52:31;;;;;;;71.80;43.67;;;5.60;99.90;;;;;;5078795;28;20452;-80
2022/11/30 07:55:01;;;;;;;73.17;43.40;;;5.60;99.90;;;;;;5075136;28;20501;-81
2022/11/30 07:57:29;;;;;;;82.33;45.67;;;5.60;99.90;;;;;;5077886;28;20449;-81
2022/11/30 07:59:57;;;;;;;80.63;46.80;;;5.60;99.90;;;;;;5076604;28;20449;-81
2022/11/30 08:02:25;;;;;;;71.70;44.57;;;5.60;99.90;;;;;;5077415;28;20475;-81
2022/11/30 08:04:57;;;;;;;75.83;46.30;;;5.50;99.90;;;;;;5077089;28;20514;-80
2022/11/30 08:07:25;;;;;;;76.93;46.20;;;5.60;99.90;;;;;;5077419;28;20436;-81
2022/11/30 08:09:54;;;;;;;81.60;47.97;;;5.60;99.90;;;;;;5076004;28;20453;-80
2022/11/30 08:12:23;;;;;;;76.47;45.50;;;5.60;99.90;;;;;;5075437;28;20453;-80
2022/11/30 08:14:51;;;;;;;85.33;48.20;;;5.60;99.90;;;;;;5076956;28;20465;-81
2022/11/30 08:17:39;;;;;;;92.87;51.17;;;5.60;99.90;;;;;;5075520;28;20863;-81
2022/11/30 08:20:10;;;;;;;93.53;50.60;;;5.60;99.90;;;;;;5076681;28;20524;-81
2022/11/30 08:22:38;;;;;;;93.90;50.23;;;5.60;99.90;;;;;;5078620;28;20565;-80
2022/11/30 08:25:09;;;;;;;97.63;52.13;;;5.60;99.90;;;;;;5077595;28;20990;-80
2022/11/30 08:27:37;;;;;;;105.93;54.40;;;5.60;99.90;;;;;;5076416;28;20445;-80
2022/11/30 08:30:07;;;;;;;91.23;50.80;;;5.60;99.90;;;;;;5075004;28;20453;-80
2022/11/30 08:32:36;;;;;;;90.57;52.80;;;5.60;99.90;;;;;;5074836;28;20449;-80
2022/11/30 08:35:04;;;;;;;87.13;49.20;;;5.60;99.90;;;;;;5074673;28;20565;-80
2022/11/30 08:37:36;;;;;;;91.60;50.53;;;5.60;99.90;;;;;;5074700;28;20445;-80
2022/11/30 08:40:06;;;;;;;92.40;52.80;;;5.60;99.90;;;;;;5075756;28;20933;-80
2022/11/30 08:42:35;;;;;;;100.77;55.13;;;5.60;99.90;;;;;;5075833;28;20472;-80
2022/11/30 08:45:03;;;;;;;97.67;51.67;;;5.60;99.90;;;;;;5073438;28;20546;-80
2022/11/30 08:47:33;;;;;;;97.43;53.83;;;5.60;99.90;;;;;;5076454;28;20438;-80
2022/11/30 08:50:01;;;;;;;101.63;53.40;;;5.70;99.90;;;;;;5074732;28;20490;-80
2022/11/30 08:52:29;;;;;;;100.83;52.93;;;5.70;99.90;;;;;;5076921;28;20441;-80
2022/11/30 08:54:57;;;;;;;106.27;53.53;;;5.60;99.90;;;;;;5076333;28;20981;-80
2022/11/30 08:57:25;;;;;;;102.13;55.23;;;5.70;99.90;;;;;;5074764;28;20526;-80
2022/11/30 08:59:57;;;;;;;104.37;54.73;;;5.70;99.90;;;;;;5074715;28;20449;-80
2022/11/30 09:02:25;;;;;;;115.57;55.70;;;5.70;99.90;;;;;;5074576;28;20453;-80
2022/11/30 09:04:54;;;;;;;139.20;63.13;;;5.70;99.90;;;;;;5074742;28;20480;-80
2022/11/30 09:07:22;;;;;;;119.90;57.73;;;5.70;99.90;;;;;;5074835;28;20445;-80
2022/11/30 09:09:50;;;;;;;119.40;60.07;;;5.70;99.90;;;;;;5075038;28;20548;-79
2022/11/30 09:12:18;;;;;;;116.20;57.47;;;5.70;99.90;;;;;;5076393;28;20448;-80
2022/11/30 09:14:48;;;;;;;130.70;59.73;;;5.70;99.90;;;;;;5074527;28;20461;-80
2022/11/30 09:17:25;;;;;;;123.83;57.23;;;5.70;99.90;;;;;;5074606;28;20429;-80
2022/11/30 09:19:54;;;;;;;116.43;60.37;;;5.70;99.90;;;;;;5074990;28;20449;-80
2022/11/30 09:22:22;;;;;;;134.60;60.13;;;5.70;99.90;;;;;;5076171;28;20437;-80
2022/11/30 09:24:51;;;;;;;120.80;58.83;;;5.70;99.90;;;;;;5074164;28;20852;-80
2022/11/30 09:27:19;;;;;;;113.13;56.23;;;5.70;99.90;;;;;;5074799;28;20465;-80
2022/11/30 09:29:47;;;;;;;122.20;60.47;;;5.70;99.90;;;;;;5076467;28;20439;-80
2022/11/30 09:32:15;;;;;;;128.53;60.90;;;5.70;99.90;;;;;;5076065;28;20460;-80
2022/11/30 09:34:45;;;;;;;128.50;61.90;;;5.80;99.90;;;;;;5074138;28;20571;-79
2022/11/30 09:37:13;;;;;;;119.13;62.60;;;5.80;99.90;;;;;;5074417;28;20449;-80
2022/11/30 09:39:41;;;;;;;124.67;62.10;;;5.80;99.90;;;;;;5075116;28;20499;-80
2022/11/30 09:42:27;;;;;;;136.00;62.73;;;5.80;99.90;;;;;;5075653;28;20456;-79
2022/11/30 09:45:03;;;;;;;129.57;62.47;;;5.80;99.90;;;;;;5077298;28;20981;-80
2022/11/30 09:47:52;;;;;;;129.60;63.73;;;5.80;99.90;;;;;;5075246;28;20804;-80
2022/11/30 09:50:24;;;;;;;131.93;63.37;;;5.80;99.90;;;;;;5074555;28;21079;-80
2022/11/30 09:52:56;;;;;;;121.83;61.43;;;5.80;99.90;;;;;;5074605;28;20445;-79
2022/11/30 09:55:27;;;;;;;124.13;60.53;;;5.80;99.90;;;;;;5076869;28;20441;-80
2022/11/30 09:57:58;;;;;;;124.33;61.43;;;5.80;99.90;;;;;;5079226;28;20444;-80
2022/11/30 10:00:26;;;;;;;131.63;63.10;;;5.80;99.90;;;;;;5078574;28;20544;-80
2022/11/30 10:02:56;;;;;;;123.30;60.00;;;5.80;99.90;;;;;;5079516;28;20494;-80
2022/11/30 10:05:34;;;;;;;133.07;62.97;;;5.80;99.90;;;;;;5078144;28;20890;-80
2022/11/30 10:08:26;;;;;;;126.33;69.23;;;5.80;99.90;;;;;;5081492;28;20977;-80
2022/11/30 10:11:09;;;;;;;115.97;60.83;;;5.80;99.90;;;;;;5080130;28;20941;-80
2022/11/30 10:13:51;;;;;;;117.93;63.73;;;5.90;99.90;;;;;;5079264;28;20472;-80
2022/11/30 10:16:26;;;;;;;105.17;59.90;;;5.80;99.90;;;;;;5079841;28;20428;-80
2022/11/30 10:19:04;;;;;;;119.80;68.77;;;5.80;99.90;;;;;;5079411;28;20956;-80
2022/11/30 10:21:50;;;;;;;129.40;61.70;;;5.90;99.90;;;;;;5080747;28;20421;-80
2022/11/30 10:24:30;;;;;;;107.17;57.20;;;5.90;99.90;;;;;;5077736;28;20496;-79
2022/11/30 10:27:01;;;;;;;109.33;58.00;;;5.90;99.90;;;;;;5061891;28;20426;-80
2022/11/30 10:29:34;;;;;;;96.80;57.07;;;5.90;99.90;;;;;;5060469;28;20446;-80
2022/11/30 10:32:13;;;;;;;105.13;56.90;;;5.90;99.90;;;;;;5058543;28;20458;-80
2022/11/30 10:34:46;;;;;;;101.30;60.03;;;5.90;99.90;;;;;;5061288;28;20453;-80
2022/11/30 10:37:20;;;;;;;106.23;61.63;;;5.90;99.90;;;;;;5059630;28;20449;-80
2022/11/30 10:39:58;;;;;;;104.73;56.50;;;5.90;99.90;;;;;;5059264;28;20852;-80
2022/11/30 10:42:33;;;;;;;103.53;59.07;;;5.90;99.90;;;;;;5059290;28;20447;-80
2022/11/30 10:45:08;;;;;;;104.00;59.70;;;5.90;99.90;;;;;;5058621;28;20564;-80
2022/11/30 10:47:40;;;;;;;100.10;57.93;;;6.00;99.90;;;;;;5062958;28;20452;-79
2022/11/30 10:50:13;;;;;;;107.43;58.87;;;6.00;99.90;;;;;;5062147;28;20448;-80
2022/11/30 10:52:46;;;;;;;102.93;59.43;;;6.00;99.90;;;;;;5061834;28;20446;-80
2022/11/30 10:55:18;;;;;;;107.17;62.03;;;6.00;99.90;;;;;;5060547;28;20477;-80
2022/11/30 10:57:49;;;;;;;96.57;57.40;;;6.00;99.90;;;;;;5061518;28;20441;-80
2022/11/30 11:00:17;;;;;;;104.07;59.03;;;6.00;99.90;;;;;;5060693;28;20445;-79
2022/11/30 11:02:47;;;;;;;91.03;55.00;;;6.00;99.90;;;;;;5059816;28;20492;-80
2022/11/30 11:05:20;;;;;;;89.27;55.90;;;6.00;99.90;;;;;;5059025;28;20512;-80
2022/11/30 11:07:53;;;;;;;88.17;56.27;;;6.00;99.90;;;;;;5060396;28;20789;-80
2022/11/30 11:10:28;;;;;;;90.10;53.67;;;6.00;99.90;;;;;;5058781;28;20504;-80
2022/11/30 11:12:57;;;;;;;84.97;54.83;;;6.00;99.90;;;;;;5064163;28;20503;-79
2022/11/30 11:15:26;;;;;;;109.03;58.63;;;6.10;99.90;;;;;;5070565;28;20455;-79
2022/11/30 11:18:21;;;;;;;94.60;57.93;;;6.00;99.90;;;;;;5086039;28;20440;-79
2022/11/30 11:21:00;;;;;;;95.30;58.53;;;6.10;99.90;;;;;;5088877;28;20919;-80
2022/11/30 11:23:37;;;;;;;106.27;62.20;;;6.00;99.90;;;;;;5093308;28;20515;-80
2022/11/30 11:26:07;;;;;;;114.30;62.33;;;6.00;99.90;;;;;;5099563;28;20460;-79
2022/11/30 11:28:37;;;;;;;110.80;63.20;;;6.00;99.90;;;;;;5100024;28;20429;-79
2022/11/30 11:31:18;;;;;;;95.70;60.70;;;6.10;99.90;;;;;;5099004;28;20453;-79
2022/11/30 11:33:52;;;;;;;109.30;62.40;;;6.10;99.90;;;;;;5093167;28;20480;-79
2022/11/30 11:36:27;;;;;;;114.20;62.60;;;6.10;99.90;;;;;;5084249;28;20450;-79
2022/11/30 11:38:57;;;;;;;102.83;62.07;;;6.00;99.90;;;;;;5084225;28;20471;-79
2022/11/30 11:41:28;;;;;;;97.07;61.27;;;6.30;99.90;;;;;;5081342;28;20471;-79
2022/11/30 11:44:01;;;;;;;105.43;58.83;;;6.10;99.90;;;;;;5081531;28;20461;-79
2022/11/30 11:46:31;;;;;;;98.20;57.03;;;6.10;99.90;;;;;;5078107;28;20418;-79
2022/11/30 11:49:02;;;;;;;96.87;58.60;;;6.10;99.90;;;;;;5078005;28;20993;-79
2022/11/30 11:51:33;;;;;;;107.83;63.83;;;6.10;99.90;;;;;;5077924;28;20441;-79
2022/11/30 11:54:11;;;;;;;98.97;57.73;;;6.20;99.90;;;;;;5077300;28;20466;-80
2022/11/30 11:56:39;;;;;;;109.23;60.20;;;6.10;99.90;;;;;;5077725;28;20441;-79
2022/11/30 11:59:15;;;;;;;99.17;60.47;;;6.20;99.90;;;;;;5077332;28;20448;-79
2022/11/30 12:01:55;;;;;;;107.60;60.07;;;6.20;99.90;;;;;;5078771;28;20429;-79
2022/11/30 12:04:44;;;;;;;104.30;57.97;;;6.20;99.90;;;;;;5075040;28;20527;-79
2022/11/30 12:07:27;;;;;;;106.10;58.93;;;6.20;99.90;;;;;;5056522;28;20540;-79
2022/11/30 12:10:06;;;;;;;101.80;59.90;;;6.20;99.90;;;;;;5057383;28;20875;-80
2022/11/30 12:12:55;;;;;;;96.77;55.27;;;6.20;99.90;;;;;;5057657;28;20490;-79
2022/11/30 12:15:28;;;;;;;99.77;57.37;;;6.20;99.90;;;;;;5063320;28;20538;-79
2022/11/30 12:18:02;;;;;;;92.33;57.60;;;6.20;99.90;;;;;;5056968;28;20434;-79
2022/11/30 12:20:42;;;;;;;90.00;56.20;;;6.20;99.90;;;;;;5054695;28;20499;-79
2022/11/30 12:23:37;;;;;;;87.03;55.60;;;6.20;99.90;;;;;;5055541;28;20526;-79
2022/11/30 12:26:18;;;;;;;108.20;57.23;;;6.20;99.90;;;;;;5054522;28;20523;-79
2022/11/30 12:29:04;;;;;;;91.60;54.10;;;6.30;99.90;;;;;;5056590;28;20426;-79
2022/11/30 12:31:41;;;;;;;97.27;55.73;;;6.20;99.90;;;;;;5055949;28;20466;-79
2022/11/30 12:34:18;;;;;;;97.37;57.53;;;6.30;99.90;;;;;;5056569;28;20454;-78
2022/11/30 12:36:56;;;;;;;100.07;57.40;;;6.20;99.90;;;;;;5054907;28;20442;-79
2022/11/30 12:39:36;;;;;;;102.60;58.60;;;6.20;99.90;;;;;;5055969;28;20421;-79
2022/11/30 12:42:10;;;;;;;98.57;53.90;;;6.20;99.90;;;;;;5056616;28;20418;-79
2022/11/30 12:44:48;;;;;;;98.67;59.27;;;6.20;99.90;;;;;;5054821;28;20499;-79
2022/11/30 12:47:37;;;;;;;98.00;55.10;;;6.20;99.90;;;;;;5057199;28;20456;-79
2022/11/30 12:50:22;;;;;;;98.60;58.73;;;6.20;99.90;;;;;;5054381;28;20442;-79
2022/11/30 12:52:58;;;;;;;90.93;54.97;;;6.20;99.90;;;;;;5055846;28;20844;-79
2022/11/30 12:55:36;;;;;;;90.10;53.73;;;6.20;99.90;;;;;;5063220;28;20467;-78
2022/11/30 12:58:16;;;;;;;96.87;55.40;;;6.30;99.90;;;;;;5074623;28;20445;-79